地図

経路データ

SID SEASON NUMBER BASIN SUBBASIN NAME ISO_TIME NATURE LAT LON WMO_WIND WMO_PRES WMO_AGENCY TRACK_TYPE DIST2LAND LANDFALL IFLAG USA_AGENCY USA_ATCF_ID USA_LAT USA_LON USA_RECORD USA_STATUS USA_WIND USA_PRES USA_SSHS USA_R34_NE USA_R34_SE USA_R34_SW USA_R34_NW USA_R50_NE USA_R50_SE USA_R50_SW USA_R50_NW USA_R64_NE USA_R64_SE USA_R64_SW USA_R64_NW USA_POCI USA_ROCI USA_RMW USA_EYE TOKYO_LAT TOKYO_LON TOKYO_GRADE TOKYO_WIND TOKYO_PRES TOKYO_R50_DIR TOKYO_R50_LONG TOKYO_R50_SHORT TOKYO_R30_DIR TOKYO_R30_LONG TOKYO_R30_SHORT TOKYO_LAND CMA_LAT CMA_LON CMA_CAT CMA_WIND CMA_PRES HKO_LAT HKO_LON HKO_CAT HKO_WIND HKO_PRES NEWDELHI_LAT NEWDELHI_LON NEWDELHI_GRADE NEWDELHI_WIND NEWDELHI_PRES NEWDELHI_CI NEWDELHI_DP NEWDELHI_POCI REUNION_LAT REUNION_LON REUNION_TYPE REUNION_WIND REUNION_PRES REUNION_TNUM REUNION_CI REUNION_RMW REUNION_R34_NE REUNION_R34_SE REUNION_R34_SW REUNION_R34_NW REUNION_R50_NE REUNION_R50_SE REUNION_R50_SW REUNION_R50_NW REUNION_R64_NE REUNION_R64_SE REUNION_R64_SW REUNION_R64_NW BOM_LAT BOM_LON BOM_TYPE BOM_WIND BOM_PRES BOM_TNUM BOM_CI BOM_RMW BOM_R34_NE BOM_R34_SE BOM_R34_SW BOM_R34_NW BOM_R50_NE BOM_R50_SE BOM_R50_SW BOM_R50_NW BOM_R64_NE BOM_R64_SE BOM_R64_SW BOM_R64_NW BOM_ROCI BOM_POCI BOM_EYE BOM_POS_METHOD BOM_PRES_METHOD NADI_LAT NADI_LON NADI_CAT NADI_WIND NADI_PRES WELLINGTON_LAT WELLINGTON_LON WELLINGTON_WIND WELLINGTON_PRES DS824_LAT DS824_LON DS824_STAGE DS824_WIND DS824_PRES TD9636_LAT TD9636_LON TD9636_STAGE TD9636_WIND TD9636_PRES TD9635_LAT TD9635_LON TD9635_WIND TD9635_PRES TD9635_ROCI NEUMANN_LAT NEUMANN_LON NEUMANN_CLASS NEUMANN_WIND NEUMANN_PRES MLC_LAT MLC_LON MLC_CLASS MLC_WIND MLC_PRES USA_GUST BOM_GUST BOM_GUST_PER REUNION_GUST REUNION_GUST_PER USA_SEAHGT USA_SEARAD_NE USA_SEARAD_SE USA_SEARAD_SW USA_SEARAD_NW STORM_SPEED STORM_DIR
1959081S12064 1959 29 SI MM NOT_NAMED 1959-03-22 06:00:00 TS -12.3000 64.0000 main 1101 1058 O________OO___ jtwc_sh SH281959 -12.3000 64.0000 -1 -12.3000 64.0000 TC 25 -12.3000 64.0000 7 9 243
1959081S12064 1959 29 SI MM NOT_NAMED 1959-03-22 09:00:00 TS -12.5048 63.5933 main 1058 1014 P________PP___ SH281959 -12.5076 63.5926 -1 -12.5076 63.5926 TC 25 -12.4991 63.5945 7 9 243
1959081S12064 1959 29 SI MM NOT_NAMED 1959-03-22 12:00:00 TS -12.6961 63.2003 main 1014 977 O________OP___ jtwc_sh SH281959 -12.7000 63.2000 -1 -12.7000 63.2000 TC 25 -12.6883 63.2009 7 8 244
1959081S12064 1959 29 SI MM NOT_NAMED 1959-03-22 15:00:00 TS -12.8628 62.8339 main 971 944 P________PP___ SH281959 -12.8649 62.8350 -1 -12.8649 62.8350 TC 30 -12.8584 62.8318 7 7 246
1959081S12064 1959 29 SI MM NOT_NAMED 1959-03-22 18:00:00 TS -13.0000 62.5000 main 944 918 O________OO___ jtwc_sh SH281959 -13.0000 62.5000 -1 -13.0000 62.5000 TC 35 -13.0000 62.5000 2 7 248
1959081S12064 1959 29 SI MM NOT_NAMED 1959-03-22 21:00:00 TS -13.1079 62.1984 main 918 892 P________PP___ SH281959 -13.1074 62.1924 -1 -13.1074 62.1924 TC 35 -13.1088 62.2104 2 6 251
1959081S12064 1959 29 SI MM NOT_NAMED 1959-03-23 00:00:00 TS -13.1997 61.9122 main 892 872 O________OP___ jtwc_sh SH281959 -13.2000 61.9000 -1 -13.2000 61.9000 TC 35 -13.1992 61.9367 2 6 252
1959081S12064 1959 29 SI MM NOT_NAMED 1959-03-23 03:00:00 TS -13.2866 61.6348 main 866 827 P________PP___ SH281959 -13.2848 61.6298 -1 -13.2848 61.6298 TC 35 -13.2900 61.6447 2 8 245
1959081S12064 1959 29 SI MM NOT_NAMED 1959-03-23 06:00:00 TS -13.5231 61.2077 reunion main 827 773 O____O___OO___ jtwc_sh SH281959 -13.4000 61.3000 -1 -15.0000 60.1000 99 9.90000 -13.4000 61.3000 TC 35 -13.4000 61.3000 2 11 241
1959081S12064 1959 29 SI MM NOT_NAMED 1959-03-23 09:00:00 TS -13.7993 60.6761 main 773 718 P____P___PP___ SH281959 -13.5926 60.8301 -1 -15.1016 59.6887 99 -13.5926 60.8301 TC 35 -13.5617 60.8618 2 12 243
1959081S12064 1959 29 SI MM NOT_NAMED 1959-03-23 12:00:00 TS -14.0650 60.1130 main 718 679 O____P___OP___ jtwc_sh SH281959 -13.8000 60.3000 -1 -15.2014 59.2747 99 -13.8000 60.3000 TC 35 -13.7426 60.3678 2 12 246
1959081S12064 1959 29 SI MM NOT_NAMED 1959-03-23 15:00:00 TS -14.2851 59.5738 main 679 654 P____P___PP___ SH281959 -13.9574 59.7999 -1 -15.2983 58.8555 99 -13.9574 59.7999 TC 35 -13.9272 59.8398 2 11 250
1959081S12064 1959 29 SI MM NOT_NAMED 1959-03-23 18:00:00 TS -14.4228 59.0822 main 654 622 O____P___OO___ jtwc_sh SH281959 -14.1000 59.3000 -1 -15.3912 58.4288 99 -14.1000 59.3000 TC 35 -14.1000 59.3000 2 10 254
1959081S12064 1959 29 SI MM NOT_NAMED 1959-03-23 21:00:00 TS -14.5592 58.5983 main 622 605 P____P___PP___ SH281959 -14.2573 58.8075 -1 -15.4790 57.9923 99 -14.2573 58.8075 TC 35 -14.2431 58.7860 2 10 255
1959081S12064 1959 29 SI MM NOT_NAMED 1959-03-24 00:00:00 TS -14.6831 58.1021 main 605 593 O____P___OP___ jtwc_sh SH281959 -14.4000 58.3000 -1 -15.5605 57.5436 99 -14.4000 58.3000 TC 35 -14.3720 58.2647 2 10 257
1959081S12064 1959 29 SI MM NOT_NAMED 1959-03-24 03:00:00 TS -14.7848 57.5828 main 593 582 P____P___PP___ SH281959 -14.5074 57.7574 -1 -15.6346 57.0803 99 -14.5074 57.7574 TC 35 -14.4899 57.7360 2 10 259
1959081S12064 1959 29 SI MM NOT_NAMED 1959-03-24 06:00:00 TS -14.8750 57.0500 reunion main 583 578 O____O___OO___ jtwc_sh SH281959 -14.6000 57.2000 -1 -15.7000 56.6000 99 9.90000 -14.6000 57.2000 TC 35 -14.6000 57.2000 2 10 260
1959081S12064 1959 29 SI MM NOT_NAMED 1959-03-24 09:00:00 TS -14.9676 56.5197 main 580 580 P____P___PP___ SH281959 -14.6999 56.6500 -1 -15.7561 56.1014 99 -14.6999 56.6500 TC 35 -14.7146 56.6773 2 10 260
1959081S12064 1959 29 SI MM NOT_NAMED 1959-03-24 12:00:00 TS -15.0563 55.9830 main 581 536 O____P___OP___ jtwc_sh SH281959 -14.8000 56.1000 -1 -15.8038 55.5874 99 -14.8000 56.1000 TC 35 -14.8215 56.1448 2 11 260
1959081S12064 1959 29 SI MM NOT_NAMED 1959-03-24 15:00:00 TS -15.1442 55.4492 main 526 472 P____P___PP___ SH281959 -14.9072 55.5725 -1 -15.8446 55.0619 99 -14.9072 55.5725 TC 50 -14.9176 55.5899 2 11 261
1959081S12064 1959 29 SI MM NOT_NAMED 1959-03-24 18:00:00 TS -15.2200 54.8822 main 472 407 O____P___OO___ jtwc_sh SH281959 -15.0000 55.0000 -1 -15.8800 54.5289 99 -15.0000 55.0000 TC 65 -15.0000 55.0000 4 12 264
1959081S12064 1959 29 SI MM NOT_NAMED 1959-03-24 21:00:00 TS -15.2739 54.2386 main 396 332 P____P___PP___ SH281959 -15.0575 54.3149 -1 -15.9117 53.9923 99 -15.0575 54.3149 TC 65 -15.0689 54.3324 4 13 266
1959081S12064 1959 29 SI MM NOT_NAMED 1959-03-25 00:00:00 TS -15.3161 53.5727 main 332 268 O____P___OP___ jtwc_sh SH281959 -15.1000 53.6000 -1 -15.9411 53.4561 99 -15.1000 53.6000 TC 65 -15.1232 53.6349 4 13 266
1959081S12064 1959 29 SI MM NOT_NAMED 1959-03-25 03:00:00 TS -15.3627 52.9273 main 257 203 P____P___PP___ SH281959 -15.1574 52.9201 -1 -15.9700 52.9240 99 -15.1574 52.9201 TC 65 -15.1658 52.9449 4 12 266
1959081S12064 1959 29 SI MM NOT_NAMED 1959-03-25 06:00:00 TS -15.4000 52.3250 reunion main 193 139 O____O___OO___ jtwc_sh SH281959 -15.2000 52.3000 -1 -16.0000 52.4000 99 9.90000 -15.2000 52.3000 TC 65 -15.2000 52.3000 4 11 267
1959081S12064 1959 29 SI MM NOT_NAMED 1959-03-25 09:00:00 TS -15.4113 51.7912 main 139 85 P____P___PP___ SH281959 -15.1997 51.7774 -1 -16.0148 51.8524 99 -15.1997 51.7774 TC 65 -15.2311 51.7577 4 10 269
1959081S12064 1959 29 SI MM NOT_NAMED 1959-03-25 12:00:00 TS -15.4208 51.2919 main 85 34 O____P___OP___ jtwc_sh SH281959 -15.2000 51.3000 -1 -16.0269 51.3054 99 -15.2000 51.3000 TC 65 -15.2561 51.2623 4 10 267
1959081S12064 1959 29 SI MM NOT_NAMED 1959-03-25 15:00:00 TS -15.4547 50.7921 main 34 0 P____P___PP___ SH281959 -15.2498 50.8076 -1 -16.0410 50.7675 99 -15.2498 50.8076 TC 65 -15.2781 50.7858 4 10 266
1959081S12064 1959 29 SI MM NOT_NAMED 1959-03-25 18:00:00 TS -15.4904 50.2867 main 0 0 O____P___OO___ jtwc_sh SH281959 -15.3000 50.3000 -1 -16.0614 50.2467 99 -15.3000 50.3000 TC 65 -15.3000 50.3000 4 10 267
1959081S12064 1959 29 SI MM NOT_NAMED 1959-03-25 21:00:00 TS -15.4995 49.7444 main 10 0 P____P___PP___ SH281959 -15.2999 49.7574 -1 -16.0928 49.7514 99 -15.2999 49.7574 TC 50 -15.3052 49.7114 4 10 269
1959081S12064 1959 29 SI MM NOT_NAMED 1959-03-26 00:00:00 TS -15.5133 49.2017 main 0 0 O____P___OP___ jtwc_sh SH281959 -15.3000 49.2000 -1 -16.1399 49.2897 99 -15.3000 49.2000 TC 35 -15.3133 49.1173 4 10 267
1959081S12064 1959 29 SI MM NOT_NAMED 1959-03-26 03:00:00 TS -15.5543 48.6649 main 0 0 P____P___PP___ SH281959 -15.3351 48.6125 -1 -16.2074 48.8699 99 -15.3351 48.6125 TC 30 -15.3397 48.5645 4 10 263
1959081S12064 1959 29 SI MM NOT_NAMED 1959-03-26 06:00:00 TS -15.6250 48.2000 reunion main 0 0 O____O___OO___ jtwc_sh SH281959 -15.4000 48.1000 -1 -16.3000 48.5000 99 9.90000 -15.4000 48.1000 TC 25 -15.4000 48.1000 1 8 258
1959081S12064 1959 29 SI MM NOT_NAMED 1959-03-26 09:00:00 TS -15.7190 47.8516 main 0 0 P____P___PP___ SH281959 -15.4773 47.7400 -1 -16.4284 48.1653 99 -15.4773 47.7400 TC 25 -15.4930 47.7613 1 6 249
1959081S12064 1959 29 SI MM NOT_NAMED 1959-03-26 12:00:00 TS -15.8517 47.5979 main 0 0 O____P___OP___ jtwc_sh SH281959 -15.6000 47.5000 -1 -16.5824 47.8766 99 -15.6000 47.5000 TC 25 -15.6242 47.5150 1 5 234
1959081S12064 1959 29 SI MM NOT_NAMED 1959-03-26 15:00:00 TS -16.0265 47.4020 main 0 0 P____P___PP___ SH281959 -15.7774 47.3200 -1 -16.7577 47.6320 99 -15.7774 47.3200 TC 25 -15.7933 47.3363 1 5 220
1959081S12064 1959 29 SI MM NOT_NAMED 1959-03-26 18:00:00 TS -16.2375 47.2573 main 0 0 O____P___OO___ jtwc_sh SH281959 -16.0000 47.2000 -1 -16.9499 47.4293 99 -16.0000 47.2000 TC 25 -16.0000 47.2000 1 5 211
1959081S12064 1959 29 SI MM NOT_NAMED 1959-03-26 21:00:00 TS -16.4659 47.1249 main 0 0 P____P___PP___ SH281959 -16.2350 47.0924 -1 -17.1546 47.2667 99 -16.2350 47.0924 TC 25 -16.2390 47.0478 1 5 205
1959081S12064 1959 29 SI MM NOT_NAMED 1959-03-27 00:00:00 TS -16.7200 47.0187 main 0 0 O____P___OP___ jtwc_sh SH281959 -16.5000 47.0000 -1 -17.3675 47.1422 99 -16.5000 47.0000 TC 25 -16.5124 46.9326 1 6 200
1959081S12064 1959 29 SI MM NOT_NAMED 1959-03-27 03:00:00 TS -16.9972 46.9225 main 0 0 P____P___PP___ SH281959 -16.8000 46.8925 -1 -17.5841 47.0539 99 -16.8000 46.8925 TC 25 -16.8046 46.8510 1 6 196
1959081S12064 1959 29 SI MM NOT_NAMED 1959-03-27 06:00:00 TS -17.2750 46.8500 reunion main 0 0 O____O___OO___ jtwc_sh SH281959 -17.1000 46.8000 -1 -17.8000 47.0000 99 9.90000 -17.1000 46.8000 TC 25 -17.1000 46.8000 1 5 194
1959081S12064 1959 29 SI MM NOT_NAMED 1959-03-27 09:00:00 TS -17.5199 46.7842 main 0 0 P____P___PP___ SH281959 -17.3500 46.7275 -1 -18.0006 46.9308 99 -17.3500 46.7275 TC 25 -17.3790 46.7509 1 5 191
1959081S12064 1959 29 SI MM NOT_NAMED 1959-03-27 12:00:00 TS -17.7654 46.7577 main 0 0 O____P___OP___ jtwc_sh SH281959 -17.6000 46.7000 -1 -18.2040 46.8981 99 -17.6000 46.7000 TC 25 -17.6574 46.7326 1 5 183
1959081S12064 1959 29 SI MM NOT_NAMED 1959-03-27 15:00:00 TS -18.0353 46.7759 main 0 0 P____P___PP___ SH281959 -17.9000 46.7275 -1 -18.4089 46.9007 99 -17.9000 46.7275 TC 25 -17.9321 46.7479 1 5 173
1959081S12064 1959 29 SI MM NOT_NAMED 1959-03-27 18:00:00 TS -18.3034 46.8343 main 0 0 O____P___OO___ jtwc_sh SH281959 -18.2000 46.8000 -1 -18.6136 46.9374 99 -18.2000 46.8000 TC 25 -18.2000 46.8000 1 5 166
1959081S12064 1959 29 SI MM NOT_NAMED 1959-03-27 21:00:00 TS -18.5502 46.9114 main 0 0 P____P___PP___ SH281959 -18.4575 46.8850 -1 -18.8167 47.0069 99 -18.4575 46.8850 TC 25 -18.4693 46.8687 1 5 160
1959081S12064 1959 29 SI MM NOT_NAMED 1959-03-28 00:00:00 TS -18.7866 47.0207 main 0 0 O____P___OP___ jtwc_sh SH281959 -18.7000 47.0000 -1 -19.0165 47.1080 99 -18.7000 47.0000 TC 25 -18.7298 46.9750 1 5 154
1959081S12064 1959 29 SI MM NOT_NAMED 1959-03-28 03:00:00 TS -19.0255 47.1533 main 0 0 P____P___PP___ SH281959 -18.9575 47.1276 -1 -19.2114 47.2394 99 -18.9575 47.1276 TC 25 -18.9755 47.1188 1 5 148
1959081S12064 1959 29 SI MM NOT_NAMED 1959-03-28 06:00:00 TS -19.2500 47.3250 reunion main 0 0 O____O___OO___ jtwc_sh SH281959 -19.2000 47.3000 -1 -19.4000 47.4000 99 9.90000 -19.2000 47.3000 TC 25 -19.2000 47.3000 1 6 140
1959081S12064 1959 29 SI MM NOT_NAMED 1959-03-28 09:00:00 TS -19.4542 47.5332 main 0 0 P____P___PP___ SH281959 -19.4150 47.5350 -1 -19.5819 47.5489 99 -19.4150 47.5350 TC 25 -19.4048 47.5140 1 6 132
1959081S12064 1959 29 SI MM NOT_NAMED 1959-03-28 12:00:00 TS -19.6364 47.7727 main 0 0 O____P___OP___ jtwc_sh SH281959 -19.6000 47.8000 -1 -19.7580 47.7283 99 -19.6000 47.8000 TC 25 -19.5876 47.7625 1 6 127
1959081S12064 1959 29 SI MM NOT_NAMED 1959-03-28 15:00:00 TS -19.7988 48.0168 main 0 0 P____P___PP___ SH281959 -19.7575 48.0501 -1 -19.9286 47.9375 99 -19.7575 48.0501 TC 25 -19.7516 48.0297 1 6 124
1959081S12064 1959 29 SI MM NOT_NAMED 1959-03-28 18:00:00 TS -19.9484 48.2689 main 0 0 O____P___OO___ jtwc_sh SH281959 -19.9000 48.3000 -1 -20.0936 48.1755 99 -19.9000 48.3000 TC 25 -19.9000 48.3000 1 6 123
1959081S12064 1959 29 SI MM NOT_NAMED 1959-03-28 21:00:00 TS -20.0997 48.5129 main 0 0 P____P___PP___ SH281959 -20.0575 48.5500 -1 -20.2532 48.4416 99 -20.0575 48.5500 TC 25 -20.0306 48.5100 1 6 122
1959081S12064 1959 29 SI MM NOT_NAMED 1959-03-29 00:00:00 TS -20.2391 48.7652 main 10 10 O____P___OP___ jtwc_sh SH281959 -20.2000 48.8000 -1 -20.4074 48.7350 99 -20.2000 48.8000 TC 25 -20.1490 48.7260 1 5 118
1959081S12064 1959 29 SI MM NOT_NAMED 1959-03-29 03:00:00 TS -20.3522 49.0185 main 38 38 P____P___PP___ SH281959 -20.2923 49.0202 -1 -20.5563 49.0547 99 -20.2923 49.0202 TC 25 -20.2679 48.9789 1 6 114
1959081S12064 1959 29 SI MM NOT_NAMED 1959-03-29 06:00:00 TS -20.4750 49.3250 reunion main 70 70 O____O___OO___ jtwc_sh SH281959 -20.4000 49.3000 -1 -20.7000 49.4000 99 9.90000 -20.4000 49.3000 TC 25 -20.4000 49.3000 1 7 114
1959081S12064 1959 29 SI MM NOT_NAMED 1959-03-29 09:00:00 TS -20.6535 49.7344 main 118 118 P____P___PP___ SH281959 -20.5925 49.7049 -1 -20.8517 49.7842 99 -20.5925 49.7049 TC 25 -20.5776 49.7437 1 9 114
1959081S12064 1959 29 SI MM NOT_NAMED 1959-03-29 12:00:00 TS -20.8411 50.2138 main 170 170 O____P___OP___ jtwc_sh SH281959 -20.8000 50.2000 -1 -20.9984 50.2011 99 -20.8000 50.2000 TC 25 -20.7660 50.2540 1 10 111
1959081S12064 1959 29 SI MM NOT_NAMED 1959-03-29 15:00:00 TS -21.0038 50.7319 main 226 226 P____P___PP___ SH281959 -20.9651 50.7500 -1 -21.1386 50.6401 99 -20.9651 50.7500 TC 25 -20.9463 50.7875 1 10 107
1959081S12064 1959 29 SI MM NOT_NAMED 1959-03-29 18:00:00 TS -21.1428 51.2477 main 278 278 O____P___OO___ jtwc_sh SH281959 -21.1000 51.3000 -1 -21.2710 51.0909 99 -21.1000 51.3000 TC 25 -21.1000 51.3000 1 9 106
1959081S12064 1959 29 SI MM NOT_NAMED 1959-03-29 21:00:00 TS -21.2579 51.7121 main 334 322 P____P___PP___ SH281959 -21.2149 51.7801 -1 -21.3945 51.5429 99 -21.2149 51.7801 TC 25 -21.2074 51.7455 1 9 104
1959081S12064 1959 29 SI MM NOT_NAMED 1959-03-30 00:00:00 TS -21.3487 52.1365 main 322 281 O____P___OP___ jtwc_sh SH281959 -21.3000 52.2000 -1 -21.5078 51.9855 99 -21.3000 52.2000 TC 25 -21.2870 52.1606 1 8 102
1959081S12064 1959 29 SI MM NOT_NAMED 1959-03-30 03:00:00 TS -21.4182 52.5247 main 281 242 P____P___PP___ SH281959 -21.3574 52.5726 -1 -21.6099 52.4081 99 -21.3574 52.5726 TC 30 -21.3482 52.5453 1 7 100
1959081S12064 1959 29 SI MM NOT_NAMED 1959-03-30 06:00:00 TS -21.4750 52.8750 reunion main 242 211 O____O___OO___ jtwc_sh SH281959 -21.4000 52.9000 -1 -21.7000 52.8000 99 9.90000 -21.4000 52.9000 TC 35 -21.4000 52.9000 2 6 99
1959081S12064 1959 29 SI MM NOT_NAMED 1959-03-30 09:00:00 TS -21.5232 53.2007 main 211 184 P____P___PP___ SH281959 -21.4499 53.2075 -1 -21.7445 53.1548 99 -21.4499 53.2075 TC 35 -21.4487 53.2331 2 6 99
1959081S12064 1959 29 SI MM NOT_NAMED 1959-03-30 12:00:00 TS -21.5662 53.5059 main 184 155 O____P___OP___ jtwc_sh SH281959 -21.5000 53.5000 -1 -21.7728 53.4856 99 -21.5000 53.5000 TC 35 -21.4920 53.5379 2 6 99
1959081S12064 1959 29 SI MM NOT_NAMED 1959-03-30 15:00:00 TS -21.6082 53.8037 main 155 126 P____P___PP___ SH281959 -21.5499 53.8000 -1 -21.7937 53.7910 99 -21.5499 53.8000 TC 35 -21.5394 53.8237 2 6 99
1959081S12064 1959 29 SI MM NOT_NAMED 1959-03-30 18:00:00 TS -21.6540 54.0925 main 131 103 O____P___OO___ jtwc_sh SH281959 -21.6000 54.1000 -1 -21.8162 54.0700 99 -21.6000 54.1000 TC 35 -21.6000 54.1000 2 5 99
1959081S12064 1959 29 SI MM NOT_NAMED 1959-03-30 21:00:00 TS -21.6931 54.3858 main 103 85 P____P___PP___ SH281959 -21.6350 54.4076 -1 -21.8491 54.3215 99 -21.6350 54.4076 TC 35 -21.6532 54.4067 2 5 101
1959081S12064 1959 29 SI MM NOT_NAMED 1959-03-31 00:00:00 TS -21.7566 54.6618 main 83 69 O____P___OP___ jtwc_sh SH281959 -21.7000 54.7000 -1 -21.9015 54.5443 99 -21.7000 54.7000 TC 35 -21.7251 54.7027 2 5 109
1959081S12064 1959 29 SI MM NOT_NAMED 1959-03-31 03:00:00 TS -21.8604 54.9100 main 78 73 P____P___PP___ SH281959 -21.8125 54.9651 -1 -21.9822 54.7375 99 -21.8125 54.9651 TC 50 -21.8345 54.9724 2 5 122
1959081S12064 1959 29 SI MM NOT_NAMED 1959-03-31 06:00:00 TS -22.0250 55.1250 reunion main 80 80 O____O___OO___ jtwc_sh SH281959 -22.0000 55.2000 -1 -22.1000 54.9000 99 9.90000 -22.0000 55.2000 TC 65 -22.0000 55.2000 4 6 137
1959081S12064 1959 29 SI MM NOT_NAMED 1959-03-31 09:00:00 TS -22.2687 55.3280 main 105 102 P____P___PP___ SH281959 -22.2775 55.4299 -1 -22.2733 55.0482 99 -22.2775 55.4299 TC 65 -22.2464 55.4042 4 6 148
1959081S12064 1959 29 SI MM NOT_NAMED 1959-03-31 12:00:00 TS -22.5572 55.4815 main 134 134 O____P___OP___ jtwc_sh SH281959 -22.6000 55.6000 -1 -22.4816 55.1641 99 -22.6000 55.6000 TC 65 -22.5473 55.5618 4 6 158
1959081S12064 1959 29 SI MM NOT_NAMED 1959-03-31 15:00:00 TS -22.8486 55.5763 main 156 156 P____P___PP___ SH281959 -22.9000 55.6950 -1 -22.7200 55.2516 99 -22.9000 55.6950 TC 65 -22.8745 55.6635 4 6 170
1959081S12064 1959 29 SI MM NOT_NAMED 1959-03-31 18:00:00 TS -23.1460 55.6037 main 190 190 O____P___OO___ jtwc_sh SH281959 -23.2000 55.7000 -1 -22.9840 55.3147 99 -23.2000 55.7000 TC 65 -23.2000 55.7000 4 6 0
1959081S12064 1959 29 SI MM NOT_NAMED 1959-03-31 21:00:00 TS -23.4466 55.5609 main 223 223 P____P___PP___ SH281959 -23.5075 55.6226 -1 -23.2687 55.3572 99 -23.5075 55.6226 TC 65 -23.5025 55.6413 4 6 191
1959081S12064 1959 29 SI MM NOT_NAMED 1959-04-01 00:00:00 TS -23.7411 55.4767 main 257 257 O____P___OP___ jtwc_sh SH281959 -23.8000 55.5000 -1 -23.5695 55.3829 99 -23.8000 55.5000 TC 65 -23.7951 55.5238 4 6 195
1959081S12064 1959 29 SI MM NOT_NAMED 1959-04-01 03:00:00 TS -24.0229 55.3901 main 291 291 P____P___PP___ SH281959 -24.0725 55.3850 -1 -23.8815 55.3959 99 -24.0725 55.3850 TC 65 -24.0651 55.3943 4 6 194
1959081S12064 1959 29 SI MM NOT_NAMED 1959-04-01 06:00:00 TS -24.2750 55.3250 reunion main 325 325 O____O___OO___ jtwc_sh SH281959 -24.3000 55.3000 -1 -24.2000 55.4000 99 9.90000 -24.3000 55.3000 TC 65 -24.3000 55.3000 4 5 189
1959081S12064 1959 29 SI MM NOT_NAMED 1959-04-01 09:00:00 TS -24.4898 55.3023 main 347 347 P____P___PP___ SH281959 -24.4650 55.2700 -1 -24.5435 55.3748 99 -24.4650 55.2700 TC 65 -24.4859 55.2945 4 4 0
1959081S12064 1959 29 SI MM NOT_NAMED 1959-04-01 12:00:00 TS -24.6850 55.3160 main 370 370 O____P___OP___ jtwc_sh SH281959 -24.6000 55.3000 -1 -24.9027 55.3315 99 -24.6000 55.3000 TC 65 -24.6374 55.3323 4 4 173
1959081S12064 1959 29 SI MM NOT_NAMED 1959-04-01 15:00:00 TS -24.8844 55.3637 main 391 391 P____P___PP___ SH281959 -24.7500 55.3850 -1 -25.2672 55.2809 99 -24.7500 55.3850 TC 65 -24.7702 55.4040 4 4 166
1959081S12064 1959 29 SI MM NOT_NAMED 1959-04-01 18:00:00 TS -25.0816 55.4334 main 414 413 O____P___OO___ jtwc_sh SH281959 -24.9000 55.5000 -1 -25.6263 55.2336 99 -24.9000 55.5000 TC 65 -24.9000 55.5000 4 4 164
1959081S12064 1959 29 SI MM NOT_NAMED 1959-04-01 21:00:00 TS -25.2829 55.4973 main 436 436 P____P___PP___ SH281959 -25.0500 55.5926 -1 -25.9696 55.2008 99 -25.0500 55.5926 TC 65 -25.0622 55.6033 4 4 162
1959081S12064 1959 29 SI MM NOT_NAMED 1959-04-02 00:00:00 TS -25.4773 55.5802 main 458 458 O____P___OP___ jtwc_sh SH281959 -25.2000 55.7000 -1 -26.2867 55.1935 99 -25.2000 55.7000 TC 65 -25.2225 55.7273 4 4 155
1959081S12064 1959 29 SI MM NOT_NAMED 1959-04-02 03:00:00 TS -25.6634 55.6963 main 480 480 P____P___PP___ SH281959 -25.3575 55.8500 -1 -26.5670 55.2228 99 -25.3575 55.8500 TC 65 -25.3716 55.8627 4 4 148
1959081S12064 1959 29 SI MM NOT_NAMED 1959-04-02 06:00:00 TS -25.8250 55.8250 reunion main 492 492 O____O___OO___ jtwc_sh SH281959 -25.5000 56.0000 -1 -26.8000 55.3000 99 9.90000 -25.5000 56.0000 TC 65 -25.5000 56.0000 4 4 142
1959081S12064 1959 29 SI MM NOT_NAMED 1959-04-02 09:00:00 TS -25.9501 55.9406 main 515 515 P____P___PP___ SH281959 -25.6150 56.1001 -1 -26.9782 55.4333 99 -25.6150 56.1001 TC 65 -25.5925 56.1292 4 3 135
1959081S12064 1959 29 SI MM NOT_NAMED 1959-04-02 12:00:00 TS -26.0426 56.0690 main 516 516 O____P___OP___ jtwc_sh SH281959 -25.7000 56.2000 -1 -27.1056 55.6183 99 -25.7000 56.2000 TC 65 -25.6650 56.2577 4 3 121
1959081S12064 1959 29 SI MM NOT_NAMED 1959-04-02 15:00:00 TS -26.1048 56.2326 main 528 528 P____P___PP___ SH281959 -25.7500 56.3500 -1 -27.1893 55.8479 99 -25.7500 56.3500 TC 65 -25.7300 56.3823 4 3 111
1959081S12064 1959 29 SI MM NOT_NAMED 1959-04-02 18:00:00 TS -26.1591 56.4036 main 542 542 O____P___OO___ jtwc_sh SH281959 -25.8000 56.5000 -1 -27.2364 56.1143 99 -25.8000 56.5000 TC 65 -25.8000 56.5000 4 3 114
1959081S12064 1959 29 SI MM NOT_NAMED 1959-04-02 21:00:00 TS -26.2329 56.5571 main 545 545 P____P___PP___ SH281959 -25.8925 56.6075 -1 -27.2538 56.4103 99 -25.8925 56.6075 TC 65 -25.8927 56.6032 4 3 108
1959081S12064 1959 29 SI MM NOT_NAMED 1959-04-03 00:00:00 TS -26.2477 56.7057 main 547 547 O____P___OP___ jtwc_sh SH281959 -26.0000 56.7000 -1 -27.2488 56.7282 99 -26.0000 56.7000 TC 65 -25.9924 56.7001 4 3 96
1959081S12064 1959 29 SI MM NOT_NAMED 1959-04-03 03:00:00 TS -26.2600 56.8364 main 561 561 P____P___PP___ SH281959 -26.1000 56.8000 -1 -27.2285 57.0605 99 -26.1000 56.8000 TC 65 -26.0959 56.7970 4 2 98
1959081S12064 1959 29 SI MM NOT_NAMED 1959-04-03 06:00:00 TS -26.2769 56.9385 reunion main 563 563 O____O___OO___ jtwc_sh SH281959 -26.2000 56.9000 -1 -27.2000 57.4000 99 9.90000 -26.2000 56.9000 TC 65 -26.2000 56.9000 4 2 104
1959081S12064 1959 29 SI MM NOT_NAMED 1959-04-03 09:00:00 TS -26.2959 57.0037 main 565 565 P________PP___ SH281959 -26.3000 56.9925 -1 99 -26.3000 56.9925 TC 65 -26.2879 57.0260 4 2 125
1959081S12064 1959 29 SI MM NOT_NAMED 1959-04-03 12:00:00 TS -26.3925 57.1192 main 579 579 O________OP___ jtwc_sh SH281959 -26.4000 57.1000 -1 99 -26.4000 57.1000 TC 65 -26.3776 57.1576 4 3 130
1959081S12064 1959 29 SI MM NOT_NAMED 1959-04-03 15:00:00 TS -26.4878 57.2618 main 595 595 P________PP___ SH281959 -26.4925 57.2500 -1 99 -26.4925 57.2500 TC 65 -26.4785 57.2854 4 3 129
1959081S12064 1959 29 SI MM NOT_NAMED 1959-04-03 18:00:00 TS -26.6000 57.4000 main 609 609 O________OO___ jtwc_sh SH281959 -26.6000 57.4000 -1 99 -26.6000 57.4000 TC 65 -26.6000 57.4000 4 3 138
1959081S12064 1959 29 SI MM NOT_NAMED 1959-04-03 21:00:00 TS -26.7384 57.5132 main 622 622 P________PP___ SH281959 -26.7350 57.5150 -1 99 -26.7350 57.5150 TC 65 -26.7453 57.5095 4 4 149
1959081S12064 1959 29 SI MM NOT_NAMED 1959-04-04 00:00:00 TS -26.9042 57.6007 main 647 647 O________OP___ jtwc_sh SH281959 -26.9000 57.6000 -1 99 -26.9000 57.6000 TC 65 -26.9125 57.6022 4 4 159
1959081S12064 1959 29 SI MM NOT_NAMED 1959-04-04 03:00:00 TS -27.0945 57.6663 main 671 671 P________PP___ SH281959 -27.0925 57.6650 -1 99 -27.0925 57.6650 TC 65 -27.0984 57.6688 4 4 168
1959081S12064 1959 29 SI MM NOT_NAMED 1959-04-04 06:00:00 TS -27.3000 57.7000 main 692 692 O________OO___ jtwc_sh SH281959 -27.3000 57.7000 -1 -27.3000 57.7000 TC 65 -27.3000 57.7000 4 4 174
1959081S12064 1959 29 SI MM NOT_NAMED 1959-04-04 09:00:00 TS -27.5012 57.7144 main 713 713 P________PP___ SH281959 -27.4925 57.7224 -1 -27.4925 57.7224 TC 65 -27.5187 57.6983 4 4 182
1959081S12064 1959 29 SI MM NOT_NAMED 1959-04-04 12:00:00 TS -27.7166 57.6867 main 735 735 O________OP___ jtwc_sh SH281959 -27.7000 57.7000 -1 -27.7000 57.7000 TC 65 -27.7499 57.6601 4 5 192
1959081S12064 1959 29 SI MM NOT_NAMED 1959-04-04 15:00:00 TS -27.9604 57.6074 main 764 764 P________PP___ SH281959 -27.9500 57.6151 -1 -27.9500 57.6151 TC 65 -27.9812 57.5919 4 5 199
1959081S12064 1959 29 SI MM NOT_NAMED 1959-04-04 18:00:00 TS -28.2000 57.5000 main 783 783 O________OO___ jtwc_sh SH281959 -28.2000 57.5000 -1 -28.2000 57.5000 TC 65 -28.2000 57.5000 4 5 201
1959081S12064 1959 29 SI MM NOT_NAMED 1959-04-04 21:00:00 TS -28.4105 57.4079 main 802 802 P________PP___ SH281959 -28.4150 57.4074 -1 -28.4150 57.4074 TC 65 -28.4015 57.4088 4 4 204
1959081S12064 1959 29 SI MM NOT_NAMED 1959-04-05 00:00:00 TS -28.5958 57.2983 main 822 822 O________OP___ jtwc_sh SH281959 -28.6000 57.3000 -1 -28.6000 57.3000 TC 65 -28.5874 57.2950 4 4 212
1959081S12064 1959 29 SI MM NOT_NAMED 1959-04-05 03:00:00 TS -28.7615 57.1629 main 842 840 P________PP___ SH281959 -28.7650 57.1650 -1 -28.7650 57.1650 TC 65 -28.7546 57.1587 4 4 221
1959081S12064 1959 29 SI MM NOT_NAMED 1959-04-05 06:00:00 TS -28.9000 57.0000 main 849 848 O________OO___ jtwc_sh SH281959 -28.9000 57.0000 -1 -28.9000 57.0000 TC 65 -28.9000 57.0000 4 4 231
1959081S12064 1959 29 SI MM NOT_NAMED 1959-04-05 09:00:00 TS -29.0094 56.8161 main 857 856 P________PP___ SH281959 -29.0075 56.8074 -1 -29.0075 56.8074 TC 50 -29.0133 56.8334 4 4 239
1959081S12064 1959 29 SI MM NOT_NAMED 1959-04-05 12:00:00 TS -29.1024 56.6148 main 866 865 O________OP___ jtwc_sh SH281959 -29.1000 56.6000 -1 -29.1000 56.6000 TC 35 -29.1073 56.6444 4 4 241
1959081S12064 1959 29 SI MM NOT_NAMED 1959-04-05 15:00:00 TS -29.1991 56.4210 main 875 874 P________PP___ SH281959 -29.1999 56.4149 -1 -29.1999 56.4149 TC 35 -29.1976 56.4333 4 4 241
1959081S12064 1959 29 SI MM NOT_NAMED 1959-04-05 18:00:00 TS -29.3000 56.2000 main 884 883 O________OO___ jtwc_sh SH281959 -29.3000 56.2000 -1 -29.3000 56.2000 TC 35 -29.3000 56.2000 2 5 247
1959081S12064 1959 29 SI MM NOT_NAMED 1959-04-05 21:00:00 TS -29.3885 55.9109 main 894 893 P________PP___ SH281959 -29.3851 55.9074 -1 -29.3851 55.9074 TC 35 -29.3954 55.9180 2 6 249
1959081S12064 1959 29 SI MM NOT_NAMED 1959-04-06 00:00:00 TS -29.5035 55.6066 main 904 904 O________OP___ jtwc_sh SH281959 -29.5000 55.6000 -1 -29.5000 55.6000 TC 35 -29.5105 55.6198 2 6 241
1959081S12064 1959 29 SI MM NOT_NAMED 1959-04-06 03:00:00 TS -29.6651 55.3306 main 927 927 P________PP___ SH281959 -29.6625 55.3275 -1 -29.6625 55.3275 TC 35 -29.6704 55.3368 2 6 228
1959081S12064 1959 29 SI MM NOT_NAMED 1959-04-06 06:00:00 TS -29.9000 55.1000 main 950 950 O________OO___ jtwc_sh SH281959 -29.9000 55.1000 -1 -29.9000 55.1000 TC 35 -29.9000 55.1000 2 7 213
1959081S12064 1959 29 SI MM NOT_NAMED 1959-04-06 09:00:00 TS -30.2122 54.9232 main 962 962 P________PP___ SH281959 -30.2125 54.9200 -1 -30.2125 54.9200 TC 35 -30.2116 54.9296 2 7 200
1959081S12064 1959 29 SI MM NOT_NAMED 1959-04-06 12:00:00 TS -30.5982 54.8035 main 980 980 O________OP___ jtwc_sh SH281959 -30.6000 54.8000 -1 -30.6000 54.8000 TC 35 -30.5947 54.8104 2 8 192
1959081S12064 1959 29 SI MM NOT_NAMED 1959-04-06 15:00:00 TS -31.0285 54.7303 main 1001 1001 P________PP___ SH281959 -31.0275 54.7274 -1 -31.0275 54.7274 TC 35 -31.0305 54.7360 2 9 185
1959081S12064 1959 29 SI MM NOT_NAMED 1959-04-06 18:00:00 TS -31.5000 54.7000 main 1037 1037 O________OO___ jtwc_sh SH281959 -31.5000 54.7000 -1 -31.5000 54.7000 TC 35 -31.5000 54.7000 2 10 182
1959081S12064 1959 29 SI MM NOT_NAMED 1959-04-06 21:00:00 TS -31.9906 54.6887 main 1075 1075 P________PP___ SH281959 -31.9925 54.6850 -1 -31.9925 54.6850 TC 35 -31.9869 54.6961 2 10 0
1959081S12064 1959 29 SI MM NOT_NAMED 1959-04-07 00:00:00 TS -32.4950 54.7056 main 1114 1114 O________OP___ jtwc_sh SH281959 -32.5000 54.7000 -1 -32.5000 54.7000 TC 35 -32.4851 54.7167 2 10 177
1959081S12064 1959 29 SI MM NOT_NAMED 1959-04-07 03:00:00 TS -32.9986 54.7462 main 1155 1155 P________PP___ SH281959 -33.0025 54.7423 -1 -33.0025 54.7423 TC 35 -32.9907 54.7540 2 10 176
1959081S12064 1959 29 SI MM NOT_NAMED 1959-04-07 06:00:00 TS -33.5000 54.8000 main 1203 O________OO___ jtwc_sh SH281959 -33.5000 54.8000 -1 -33.5000 54.8000 TC 35 -33.5000 54.8000 2 10 175

IBTrACS Databaseについて

本データベースは、米国NOAAが公開する1842年以降の世界の熱帯低気圧のベストトラックデータアーカイブInternational Best Track Archive for Climate Stewardship (IBTrACS)を、ウェブで閲覧しやすい形式に変換したものです。

最終更新日:2021-10-27